sensor_id;sensor_type;location;lat;lon;timestamp;P1;durP1;ratioP1;P2;durP2;ratioP2
35312;SDS011;21425;50.454;30.466;2023-02-05T00:01:21;7.90;;;2.97;;
35312;SDS011;21425;50.454;30.466;2023-02-05T00:03:46;6.30;;;2.80;;
35312;SDS011;21425;50.454;30.466;2023-02-05T00:06:12;6.43;;;2.70;;
35312;SDS011;21425;50.454;30.466;2023-02-05T00:08:38;6.32;;;2.75;;
35312;SDS011;21425;50.454;30.466;2023-02-05T00:11:03;5.45;;;2.08;;
35312;SDS011;21425;50.454;30.466;2023-02-05T00:13:42;5.15;;;2.40;;
35312;SDS011;21425;50.454;30.466;2023-02-05T00:16:09;9.25;;;2.55;;
35312;SDS011;21425;50.454;30.466;2023-02-05T00:18:38;6.50;;;3.15;;
35312;SDS011;21425;50.454;30.466;2023-02-05T00:21:04;5.35;;;3.05;;
35312;SDS011;21425;50.454;30.466;2023-02-05T00:23:30;7.22;;;2.80;;
35312;SDS011;21425;50.454;30.466;2023-02-05T00:25:57;5.88;;;2.25;;
35312;SDS011;21425;50.454;30.466;2023-02-05T00:28:22;6.47;;;3.35;;
35312;SDS011;21425;50.454;30.466;2023-02-05T00:30:48;7.07;;;2.85;;
35312;SDS011;21425;50.454;30.466;2023-02-05T00:33:14;11.55;;;6.15;;
35312;SDS011;21425;50.454;30.466;2023-02-05T00:35:41;15.55;;;8.07;;
35312;SDS011;21425;50.454;30.466;2023-02-05T00:38:07;8.32;;;3.70;;
35312;SDS011;21425;50.454;30.466;2023-02-05T00:40:33;5.13;;;2.20;;
35312;SDS011;21425;50.454;30.466;2023-02-05T00:42:58;14.93;;;6.55;;
35312;SDS011;21425;50.454;30.466;2023-02-05T00:45:24;10.00;;;3.67;;
35312;SDS011;21425;50.454;30.466;2023-02-05T00:47:49;6.35;;;3.05;;
35312;SDS011;21425;50.454;30.466;2023-02-05T00:50:15;5.57;;;2.33;;
35312;SDS011;21425;50.454;30.466;2023-02-05T00:52:41;10.50;;;3.15;;
35312;SDS011;21425;50.454;30.466;2023-02-05T00:55:06;6.53;;;2.17;;
35312;SDS011;21425;50.454;30.466;2023-02-05T00:57:32;8.65;;;3.00;;
35312;SDS011;21425;50.454;30.466;2023-02-05T00:59:58;6.55;;;2.78;;
35312;SDS011;21425;50.454;30.466;2023-02-05T01:02:23;5.50;;;2.72;;
35312;SDS011;21425;50.454;30.466;2023-02-05T01:04:52;4.80;;;2.33;;
35312;SDS011;21425;50.454;30.466;2023-02-05T01:07:18;6.97;;;2.75;;
35312;SDS011;21425;50.454;30.466;2023-02-05T01:09:44;6.05;;;2.28;;
35312;SDS011;21425;50.454;30.466;2023-02-05T01:12:10;4.80;;;2.72;;
35312;SDS011;21425;50.454;30.466;2023-02-05T01:14:38;7.70;;;3.22;;
35312;SDS011;21425;50.454;30.466;2023-02-05T01:17:05;7.85;;;3.30;;
35312;SDS011;21425;50.454;30.466;2023-02-05T01:19:32;5.82;;;2.28;;
35312;SDS011;21425;50.454;30.466;2023-02-05T01:21:58;6.00;;;3.78;;
35312;SDS011;21425;50.454;30.466;2023-02-05T01:24:24;8.20;;;3.13;;
35312;SDS011;21425;50.454;30.466;2023-02-05T01:26:49;7.45;;;4.22;;
35312;SDS011;21425;50.454;30.466;2023-02-05T01:29:17;6.07;;;2.65;;
35312;SDS011;21425;50.454;30.466;2023-02-05T01:31:43;6.35;;;3.08;;
35312;SDS011;21425;50.454;30.466;2023-02-05T01:34:08;6.18;;;3.03;;
35312;SDS011;21425;50.454;30.466;2023-02-05T01:36:34;7.22;;;3.13;;
35312;SDS011;21425;50.454;30.466;2023-02-05T01:39:00;7.63;;;2.97;;
35312;SDS011;21425;50.454;30.466;2023-02-05T01:41:25;5.45;;;2.88;;
35312;SDS011;21425;50.454;30.466;2023-02-05T01:46:49;5.32;;;3.13;;
35312;SDS011;21425;50.454;30.466;2023-02-05T01:49:18;6.65;;;2.92;;
35312;SDS011;21425;50.454;30.466;2023-02-05T01:51:46;5.95;;;3.40;;
35312;SDS011;21425;50.454;30.466;2023-02-05T01:54:13;3.05;;;2.22;;
35312;SDS011;21425;50.454;30.466;2023-02-05T01:57:00;5.97;;;3.28;;
35312;SDS011;21425;50.454;30.466;2023-02-05T01:59:40;6.20;;;2.95;;
35312;SDS011;21425;50.454;30.466;2023-02-05T02:02:08;6.97;;;3.95;;
35312;SDS011;21425;50.454;30.466;2023-02-05T02:04:41;6.35;;;3.45;;
35312;SDS011;21425;50.454;30.466;2023-02-05T02:07:10;7.85;;;3.35;;
35312;SDS011;21425;50.454;30.466;2023-02-05T02:09:42;6.65;;;3.88;;
35312;SDS011;21425;50.454;30.466;2023-02-05T02:12:10;6.15;;;3.15;;
35312;SDS011;21425;50.454;30.466;2023-02-05T02:14:38;6.57;;;3.38;;
35312;SDS011;21425;50.454;30.466;2023-02-05T02:17:06;7.70;;;3.65;;
35312;SDS011;21425;50.454;30.466;2023-02-05T02:22:16;7.25;;;3.38;;
35312;SDS011;21425;50.454;30.466;2023-02-05T02:30:38;6.38;;;3.03;;
35312;SDS011;21425;50.454;30.466;2023-02-05T02:33:16;6.38;;;3.55;;
35312;SDS011;21425;50.454;30.466;2023-02-05T02:35:50;6.30;;;3.28;;
35312;SDS011;21425;50.454;30.466;2023-02-05T02:38:36;7.47;;;3.75;;
35312;SDS011;21425;50.454;30.466;2023-02-05T02:41:14;6.70;;;3.28;;
35312;SDS011;21425;50.454;30.466;2023-02-05T02:43:50;7.90;;;3.00;;
35312;SDS011;21425;50.454;30.466;2023-02-05T02:46:26;5.18;;;2.97;;
35312;SDS011;21425;50.454;30.466;2023-02-05T02:48:56;5.57;;;3.20;;
35312;SDS011;21425;50.454;30.466;2023-02-05T02:51:26;10.18;;;4.53;;
35312;SDS011;21425;50.454;30.466;2023-02-05T02:53:54;5.25;;;2.78;;
35312;SDS011;21425;50.454;30.466;2023-02-05T02:56:23;9.82;;;3.72;;
35312;SDS011;21425;50.454;30.466;2023-02-05T02:58:55;6.80;;;3.13;;
35312;SDS011;21425;50.454;30.466;2023-02-05T03:01:30;6.97;;;3.33;;
35312;SDS011;21425;50.454;30.466;2023-02-05T03:04:00;5.70;;;3.53;;
35312;SDS011;21425;50.454;30.466;2023-02-05T03:06:31;9.25;;;3.50;;
35312;SDS011;21425;50.454;30.466;2023-02-05T03:12:02;5.88;;;2.83;;
35312;SDS011;21425;50.454;30.466;2023-02-05T03:14:28;5.18;;;3.20;;
35312;SDS011;21425;50.454;30.466;2023-02-05T03:16:54;5.35;;;2.78;;
35312;SDS011;21425;50.454;30.466;2023-02-05T03:19:20;5.65;;;2.70;;
35312;SDS011;21425;50.454;30.466;2023-02-05T03:21:47;9.75;;;4.10;;
35312;SDS011;21425;50.454;30.466;2023-02-05T03:24:18;6.63;;;3.55;;
35312;SDS011;21425;50.454;30.466;2023-02-05T03:26:43;7.22;;;3.20;;
35312;SDS011;21425;50.454;30.466;2023-02-05T03:29:10;7.30;;;3.78;;
35312;SDS011;21425;50.454;30.466;2023-02-05T03:31:44;9.18;;;3.60;;
35312;SDS011;21425;50.454;30.466;2023-02-05T03:37:06;5.95;;;3.20;;
35312;SDS011;21425;50.454;30.466;2023-02-05T03:51:19;7.28;;;3.70;;
35312;SDS011;21425;50.454;30.466;2023-02-05T03:54:19;6.07;;;3.80;;
35312;SDS011;21425;50.454;30.466;2023-02-05T03:57:07;7.60;;;3.50;;
35312;SDS011;21425;50.454;30.466;2023-02-05T03:59:41;6.80;;;3.05;;
35312;SDS011;21425;50.454;30.466;2023-02-05T04:02:08;7.95;;;4.28;;
35312;SDS011;21425;50.454;30.466;2023-02-05T04:04:34;6.47;;;3.63;;
35312;SDS011;21425;50.454;30.466;2023-02-05T04:07:00;6.95;;;3.70;;
35312;SDS011;21425;50.454;30.466;2023-02-05T04:09:26;6.10;;;3.13;;
35312;SDS011;21425;50.454;30.466;2023-02-05T04:11:52;6.60;;;3.05;;
35312;SDS011;21425;50.454;30.466;2023-02-05T04:14:18;8.77;;;3.67;;
35312;SDS011;21425;50.454;30.466;2023-02-05T04:16:43;9.05;;;4.25;;
35312;SDS011;21425;50.454;30.466;2023-02-05T04:19:09;8.77;;;4.00;;
35312;SDS011;21425;50.454;30.466;2023-02-05T04:21:35;8.27;;;3.17;;
35312;SDS011;21425;50.454;30.466;2023-02-05T04:24:00;9.57;;;3.85;;
35312;SDS011;21425;50.454;30.466;2023-02-05T04:26:26;8.10;;;3.95;;
35312;SDS011;21425;50.454;30.466;2023-02-05T04:28:51;8.52;;;3.97;;
35312;SDS011;21425;50.454;30.466;2023-02-05T04:31:17;8.40;;;4.32;;
35312;SDS011;21425;50.454;30.466;2023-02-05T04:33:42;8.98;;;4.20;;
35312;SDS011;21425;50.454;30.466;2023-02-05T04:36:08;7.07;;;3.95;;
35312;SDS011;21425;50.454;30.466;2023-02-05T04:38:34;9.15;;;4.45;;
35312;SDS011;21425;50.454;30.466;2023-02-05T04:40:59;5.97;;;3.17;;
35312;SDS011;21425;50.454;30.466;2023-02-05T04:43:25;7.63;;;4.22;;
35312;SDS011;21425;50.454;30.466;2023-02-05T04:45:51;10.30;;;5.35;;
35312;SDS011;21425;50.454;30.466;2023-02-05T04:48:16;10.05;;;4.82;;
35312;SDS011;21425;50.454;30.466;2023-02-05T04:50:43;9.55;;;5.07;;
35312;SDS011;21425;50.454;30.466;2023-02-05T04:53:08;9.23;;;4.43;;
35312;SDS011;21425;50.454;30.466;2023-02-05T04:55:34;11.35;;;5.80;;
35312;SDS011;21425;50.454;30.466;2023-02-05T04:58:00;10.02;;;4.35;;
35312;SDS011;21425;50.454;30.466;2023-02-05T05:00:26;9.25;;;4.68;;
35312;SDS011;21425;50.454;30.466;2023-02-05T05:02:51;9.50;;;5.75;;
35312;SDS011;21425;50.454;30.466;2023-02-05T05:05:17;15.90;;;4.80;;
35312;SDS011;21425;50.454;30.466;2023-02-05T05:07:43;7.82;;;3.67;;
35312;SDS011;21425;50.454;30.466;2023-02-05T05:10:09;11.07;;;4.95;;
35312;SDS011;21425;50.454;30.466;2023-02-05T05:12:35;10.75;;;5.75;;
35312;SDS011;21425;50.454;30.466;2023-02-05T05:15:01;11.88;;;6.78;;
35312;SDS011;21425;50.454;30.466;2023-02-05T05:17:27;13.85;;;6.57;;
35312;SDS011;21425;50.454;30.466;2023-02-05T05:19:53;10.93;;;5.70;;
35312;SDS011;21425;50.454;30.466;2023-02-05T05:22:19;12.38;;;5.22;;
35312;SDS011;21425;50.454;30.466;2023-02-05T05:24:44;11.20;;;6.18;;
35312;SDS011;21425;50.454;30.466;2023-02-05T05:27:10;13.43;;;6.63;;
35312;SDS011;21425;50.454;30.466;2023-02-05T05:29:36;12.15;;;7.18;;
35312;SDS011;21425;50.454;30.466;2023-02-05T05:32:01;14.18;;;8.05;;
35312;SDS011;21425;50.454;30.466;2023-02-05T05:34:27;14.75;;;6.80;;
35312;SDS011;21425;50.454;30.466;2023-02-05T05:36:53;10.55;;;5.65;;
35312;SDS011;21425;50.454;30.466;2023-02-05T05:39:19;12.82;;;7.43;;
35312;SDS011;21425;50.454;30.466;2023-02-05T05:42:03;11.75;;;6.05;;
35312;SDS011;21425;50.454;30.466;2023-02-05T05:44:48;12.65;;;6.32;;
35312;SDS011;21425;50.454;30.466;2023-02-05T05:47:16;13.10;;;7.35;;
35312;SDS011;21425;50.454;30.466;2023-02-05T05:49:42;12.30;;;7.07;;
35312;SDS011;21425;50.454;30.466;2023-02-05T05:52:08;12.10;;;6.47;;
35312;SDS011;21425;50.454;30.466;2023-02-05T05:54:33;12.30;;;6.07;;
35312;SDS011;21425;50.454;30.466;2023-02-05T05:56:59;12.02;;;6.10;;
35312;SDS011;21425;50.454;30.466;2023-02-05T05:59:24;9.63;;;5.30;;
35312;SDS011;21425;50.454;30.466;2023-02-05T06:01:50;12.15;;;6.55;;
35312;SDS011;21425;50.454;30.466;2023-02-05T06:04:15;10.98;;;5.10;;
35312;SDS011;21425;50.454;30.466;2023-02-05T06:06:41;11.05;;;6.95;;
35312;SDS011;21425;50.454;30.466;2023-02-05T06:09:07;10.88;;;7.18;;
35312;SDS011;21425;50.454;30.466;2023-02-05T06:11:32;12.52;;;5.30;;
35312;SDS011;21425;50.454;30.466;2023-02-05T06:13:58;10.93;;;5.28;;
35312;SDS011;21425;50.454;30.466;2023-02-05T06:16:23;10.63;;;6.45;;
35312;SDS011;21425;50.454;30.466;2023-02-05T06:18:49;10.13;;;4.78;;
35312;SDS011;21425;50.454;30.466;2023-02-05T06:21:14;9.80;;;5.35;;
35312;SDS011;21425;50.454;30.466;2023-02-05T06:23:40;14.85;;;7.53;;
35312;SDS011;21425;50.454;30.466;2023-02-05T06:26:06;14.45;;;7.35;;
35312;SDS011;21425;50.454;30.466;2023-02-05T06:28:31;10.48;;;5.47;;
35312;SDS011;21425;50.454;30.466;2023-02-05T06:30:57;13.32;;;6.95;;
35312;SDS011;21425;50.454;30.466;2023-02-05T06:33:22;7.57;;;4.60;;
35312;SDS011;21425;50.454;30.466;2023-02-05T06:35:48;11.70;;;6.50;;
35312;SDS011;21425;50.454;30.466;2023-02-05T06:38:13;12.55;;;6.10;;
35312;SDS011;21425;50.454;30.466;2023-02-05T06:40:39;9.30;;;5.32;;
35312;SDS011;21425;50.454;30.466;2023-02-05T06:43:05;11.38;;;6.40;;
35312;SDS011;21425;50.454;30.466;2023-02-05T06:45:30;12.00;;;6.90;;
35312;SDS011;21425;50.454;30.466;2023-02-05T06:47:56;10.82;;;6.22;;
35312;SDS011;21425;50.454;30.466;2023-02-05T06:50:22;9.45;;;5.53;;
35312;SDS011;21425;50.454;30.466;2023-02-05T06:52:48;11.98;;;6.28;;
35312;SDS011;21425;50.454;30.466;2023-02-05T06:55:15;10.77;;;5.30;;
35312;SDS011;21425;50.454;30.466;2023-02-05T06:57:41;12.70;;;6.32;;
35312;SDS011;21425;50.454;30.466;2023-02-05T07:00:07;12.70;;;6.03;;
35312;SDS011;21425;50.454;30.466;2023-02-05T07:02:33;13.50;;;6.97;;
35312;SDS011;21425;50.454;30.466;2023-02-05T07:04:59;11.95;;;6.97;;
35312;SDS011;21425;50.454;30.466;2023-02-05T07:07:24;13.55;;;5.95;;
35312;SDS011;21425;50.454;30.466;2023-02-05T07:09:50;9.55;;;4.68;;
35312;SDS011;21425;50.454;30.466;2023-02-05T07:12:16;15.27;;;6.78;;
35312;SDS011;21425;50.454;30.466;2023-02-05T07:14:41;11.75;;;5.70;;
35312;SDS011;21425;50.454;30.466;2023-02-05T07:17:07;14.43;;;6.95;;
35312;SDS011;21425;50.454;30.466;2023-02-05T07:19:33;14.38;;;6.47;;
35312;SDS011;21425;50.454;30.466;2023-02-05T07:22:00;13.77;;;8.70;;
35312;SDS011;21425;50.454;30.466;2023-02-05T07:24:25;11.90;;;5.78;;
35312;SDS011;21425;50.454;30.466;2023-02-05T07:26:51;15.57;;;7.63;;
35312;SDS011;21425;50.454;30.466;2023-02-05T07:29:17;17.23;;;7.95;;
35312;SDS011;21425;50.454;30.466;2023-02-05T07:31:42;12.18;;;6.65;;
35312;SDS011;21425;50.454;30.466;2023-02-05T07:34:08;12.85;;;6.97;;
35312;SDS011;21425;50.454;30.466;2023-02-05T07:36:33;10.40;;;5.88;;
35312;SDS011;21425;50.454;30.466;2023-02-05T07:38:59;15.82;;;7.68;;
35312;SDS011;21425;50.454;30.466;2023-02-05T07:41:25;16.88;;;9.13;;
35312;SDS011;21425;50.454;30.466;2023-02-05T07:43:50;14.30;;;8.13;;
35312;SDS011;21425;50.454;30.466;2023-02-05T07:46:17;16.35;;;7.88;;
35312;SDS011;21425;50.454;30.466;2023-02-05T07:48:44;12.57;;;5.93;;
35312;SDS011;21425;50.454;30.466;2023-02-05T07:51:14;11.23;;;5.70;;
35312;SDS011;21425;50.454;30.466;2023-02-05T07:53:42;12.68;;;6.55;;
35312;SDS011;21425;50.454;30.466;2023-02-05T07:56:07;14.40;;;6.20;;
35312;SDS011;21425;50.454;30.466;2023-02-05T07:58:33;11.98;;;6.20;;
35312;SDS011;21425;50.454;30.466;2023-02-05T08:01:00;13.57;;;6.95;;
35312;SDS011;21425;50.454;30.466;2023-02-05T08:03:26;13.75;;;6.13;;
35312;SDS011;21425;50.454;30.466;2023-02-05T08:05:52;13.48;;;7.70;;
35312;SDS011;21425;50.454;30.466;2023-02-05T08:08:17;12.82;;;6.43;;
35312;SDS011;21425;50.454;30.466;2023-02-05T08:10:43;16.02;;;8.40;;
35312;SDS011;21425;50.454;30.466;2023-02-05T08:13:08;12.88;;;7.28;;
35312;SDS011;21425;50.454;30.466;2023-02-05T08:15:36;13.75;;;7.95;;
35312;SDS011;21425;50.454;30.466;2023-02-05T08:18:03;13.20;;;7.35;;
35312;SDS011;21425;50.454;30.466;2023-02-05T08:20:28;13.75;;;7.03;;
35312;SDS011;21425;50.454;30.466;2023-02-05T08:22:54;15.13;;;8.13;;
35312;SDS011;21425;50.454;30.466;2023-02-05T08:25:20;17.00;;;8.77;;
35312;SDS011;21425;50.454;30.466;2023-02-05T08:27:45;12.35;;;7.80;;
35312;SDS011;21425;50.454;30.466;2023-02-05T08:30:12;12.90;;;8.40;;
35312;SDS011;21425;50.454;30.466;2023-02-05T08:32:39;13.30;;;6.07;;
35312;SDS011;21425;50.454;30.466;2023-02-05T08:35:05;14.27;;;8.32;;
35312;SDS011;21425;50.454;30.466;2023-02-05T08:37:31;13.88;;;8.70;;
35312;SDS011;21425;50.454;30.466;2023-02-05T08:39:56;12.60;;;6.22;;
35312;SDS011;21425;50.454;30.466;2023-02-05T08:42:22;13.93;;;7.43;;
35312;SDS011;21425;50.454;30.466;2023-02-05T08:44:48;15.48;;;7.15;;
35312;SDS011;21425;50.454;30.466;2023-02-05T08:47:15;12.73;;;6.13;;
35312;SDS011;21425;50.454;30.466;2023-02-05T08:49:43;12.30;;;6.70;;
35312;SDS011;21425;50.454;30.466;2023-02-05T08:52:09;15.13;;;6.63;;
35312;SDS011;21425;50.454;30.466;2023-02-05T08:54:34;9.05;;;4.63;;
35312;SDS011;21425;50.454;30.466;2023-02-05T08:57:00;12.80;;;7.78;;
35312;SDS011;21425;50.454;30.466;2023-02-05T08:59:26;13.73;;;7.57;;
35312;SDS011;21425;50.454;30.466;2023-02-05T09:01:51;16.88;;;7.63;;
35312;SDS011;21425;50.454;30.466;2023-02-05T09:04:18;13.90;;;6.57;;
35312;SDS011;21425;50.454;30.466;2023-02-05T09:06:45;13.88;;;8.68;;
35312;SDS011;21425;50.454;30.466;2023-02-05T09:09:11;15.52;;;7.55;;
35312;SDS011;21425;50.454;30.466;2023-02-05T09:11:38;15.85;;;7.47;;
35312;SDS011;21425;50.454;30.466;2023-02-05T09:14:04;13.98;;;7.97;;
35312;SDS011;21425;50.454;30.466;2023-02-05T09:16:30;14.93;;;9.05;;
35312;SDS011;21425;50.454;30.466;2023-02-05T09:18:56;15.98;;;7.80;;
35312;SDS011;21425;50.454;30.466;2023-02-05T09:21:23;15.25;;;9.38;;
35312;SDS011;21425;50.454;30.466;2023-02-05T09:23:49;15.68;;;7.38;;
35312;SDS011;21425;50.454;30.466;2023-02-05T09:26:16;21.30;;;10.70;;
35312;SDS011;21425;50.454;30.466;2023-02-05T09:28:42;27.10;;;11.00;;
35312;SDS011;21425;50.454;30.466;2023-02-05T09:31:10;16.60;;;8.13;;
35312;SDS011;21425;50.454;30.466;2023-02-05T09:33:38;18.35;;;11.00;;
35312;SDS011;21425;50.454;30.466;2023-02-05T09:36:07;20.65;;;9.95;;
35312;SDS011;21425;50.454;30.466;2023-02-05T09:38:34;14.88;;;8.48;;
35312;SDS011;21425;50.454;30.466;2023-02-05T09:41:07;16.38;;;8.30;;
35312;SDS011;21425;50.454;30.466;2023-02-05T09:43:52;15.23;;;7.78;;
35312;SDS011;21425;50.454;30.466;2023-02-05T09:49:18;15.00;;;8.48;;
35312;SDS011;21425;50.454;30.466;2023-02-05T09:52:15;15.93;;;9.48;;
35312;SDS011;21425;50.454;30.466;2023-02-05T09:54:49;15.45;;;8.93;;
35312;SDS011;21425;50.454;30.466;2023-02-05T09:57:29;17.52;;;7.97;;
35312;SDS011;21425;50.454;30.466;2023-02-05T10:00:24;13.35;;;5.55;;
35312;SDS011;21425;50.454;30.466;2023-02-05T10:05:42;16.00;;;8.73;;
35312;SDS011;21425;50.454;30.466;2023-02-05T10:08:27;16.83;;;8.40;;
35312;SDS011;21425;50.454;30.466;2023-02-05T10:10:59;19.20;;;9.23;;
35312;SDS011;21425;50.454;30.466;2023-02-05T10:13:39;18.10;;;8.25;;
35312;SDS011;21425;50.454;30.466;2023-02-05T10:27:40;20.52;;;8.52;;
35312;SDS011;21425;50.454;30.466;2023-02-05T10:33:47;14.20;;;8.00;;
35312;SDS011;21425;50.454;30.466;2023-02-05T10:36:20;13.35;;;8.48;;
35312;SDS011;21425;50.454;30.466;2023-02-05T10:38:48;14.52;;;8.88;;
35312;SDS011;21425;50.454;30.466;2023-02-05T10:44:02;15.90;;;9.05;;
35312;SDS011;21425;50.454;30.466;2023-02-05T10:46:44;14.80;;;7.82;;
35312;SDS011;21425;50.454;30.466;2023-02-05T10:52:12;17.75;;;10.02;;
35312;SDS011;21425;50.454;30.466;2023-02-05T10:54:41;13.77;;;9.07;;
35312;SDS011;21425;50.454;30.466;2023-02-05T10:57:11;17.77;;;7.57;;
35312;SDS011;21425;50.454;30.466;2023-02-05T10:59:40;18.23;;;7.32;;
35312;SDS011;21425;50.454;30.466;2023-02-05T11:02:14;16.60;;;9.02;;
35312;SDS011;21425;50.454;30.466;2023-02-05T11:16:04;18.05;;;8.05;;
35312;SDS011;21425;50.454;30.466;2023-02-05T11:18:42;10.95;;;5.72;;
35312;SDS011;21425;50.454;30.466;2023-02-05T11:21:10;14.68;;;8.85;;
35312;SDS011;21425;50.454;30.466;2023-02-05T11:23:37;15.82;;;8.35;;
35312;SDS011;21425;50.454;30.466;2023-02-05T11:28:41;18.25;;;9.60;;
35312;SDS011;21425;50.454;30.466;2023-02-05T11:31:23;14.07;;;7.30;;
35312;SDS011;21425;50.454;30.466;2023-02-05T11:36:34;15.57;;;9.00;;
35312;SDS011;21425;50.454;30.466;2023-02-05T11:39:01;11.88;;;7.22;;
35312;SDS011;21425;50.454;30.466;2023-02-05T11:41:30;13.60;;;7.30;;
35312;SDS011;21425;50.454;30.466;2023-02-05T11:43:57;16.50;;;8.68;;
35312;SDS011;21425;50.454;30.466;2023-02-05T11:46:25;17.30;;;7.65;;
35312;SDS011;21425;50.454;30.466;2023-02-05T11:48:53;14.73;;;7.60;;
35312;SDS011;21425;50.454;30.466;2023-02-05T11:54:19;13.75;;;6.70;;
35312;SDS011;21425;50.454;30.466;2023-02-05T11:56:58;14.88;;;9.43;;
35312;SDS011;21425;50.454;30.466;2023-02-05T12:00:28;15.45;;;8.10;;
35312;SDS011;21425;50.454;30.466;2023-02-05T12:02:32;18.45;;;8.93;;
35312;SDS011;21425;50.454;30.466;2023-02-05T12:05:08;14.20;;;8.02;;
35312;SDS011;21425;50.454;30.466;2023-02-05T12:13:23;16.90;;;9.43;;
35312;SDS011;21425;50.454;30.466;2023-02-05T12:19:13;15.60;;;9.15;;
35312;SDS011;21425;50.454;30.466;2023-02-05T12:21:49;20.10;;;8.77;;
35312;SDS011;21425;50.454;30.466;2023-02-05T12:24:38;20.85;;;8.88;;
35312;SDS011;21425;50.454;30.466;2023-02-05T12:30:25;14.55;;;7.85;;
35312;SDS011;21425;50.454;30.466;2023-02-05T12:33:26;17.25;;;8.32;;
35312;SDS011;21425;50.454;30.466;2023-02-05T12:41:32;20.27;;;9.95;;
35312;SDS011;21425;50.454;30.466;2023-02-05T12:44:32;18.90;;;10.65;;
35312;SDS011;21425;50.454;30.466;2023-02-05T12:50:11;22.40;;;10.98;;
35312;SDS011;21425;50.454;30.466;2023-02-05T12:52:53;19.55;;;10.10;;
35312;SDS011;21425;50.454;30.466;2023-02-05T12:58:39;20.02;;;8.70;;
35312;SDS011;21425;50.454;30.466;2023-02-05T13:01:13;19.33;;;10.45;;
35312;SDS011;21425;50.454;30.466;2023-02-05T13:09:15;30.95;;;15.32;;
35312;SDS011;21425;50.454;30.466;2023-02-05T13:11:50;38.22;;;15.65;;
35312;SDS011;21425;50.454;30.466;2023-02-05T13:17:18;30.27;;;15.15;;
35312;SDS011;21425;50.454;30.466;2023-02-05T13:19:53;22.33;;;13.82;;
35312;SDS011;21425;50.454;30.466;2023-02-05T13:22:21;24.23;;;13.98;;
35312;SDS011;21425;50.454;30.466;2023-02-05T13:25:39;23.63;;;12.30;;
35312;SDS011;21425;50.454;30.466;2023-02-05T13:28:32;19.95;;;9.77;;
35312;SDS011;21425;50.454;30.466;2023-02-05T13:31:10;19.55;;;10.02;;
35312;SDS011;21425;50.454;30.466;2023-02-05T13:33:49;20.23;;;10.40;;
35312;SDS011;21425;50.454;30.466;2023-02-05T13:49:43;22.73;;;8.75;;
35312;SDS011;21425;50.454;30.466;2023-02-05T13:52:38;19.13;;;11.20;;
35312;SDS011;21425;50.454;30.466;2023-02-05T14:00:30;22.05;;;12.25;;
35312;SDS011;21425;50.454;30.466;2023-02-05T14:02:57;24.05;;;11.55;;
35312;SDS011;21425;50.454;30.466;2023-02-05T14:05:31;20.92;;;11.90;;
35312;SDS011;21425;50.454;30.466;2023-02-05T14:07:58;24.80;;;12.18;;
35312;SDS011;21425;50.454;30.466;2023-02-05T14:10:28;28.08;;;12.48;;
35312;SDS011;21425;50.454;30.466;2023-02-05T14:13:21;32.92;;;14.05;;
35312;SDS011;21425;50.454;30.466;2023-02-05T14:15:50;21.15;;;9.88;;
35312;SDS011;21425;50.454;30.466;2023-02-05T14:29:56;26.40;;;13.98;;
35312;SDS011;21425;50.454;30.466;2023-02-05T14:37:51;26.33;;;12.45;;
35312;SDS011;21425;50.454;30.466;2023-02-05T14:40:24;23.48;;;12.98;;
35312;SDS011;21425;50.454;30.466;2023-02-05T14:42:54;25.77;;;11.98;;
35312;SDS011;21425;50.454;30.466;2023-02-05T14:45:30;24.83;;;13.00;;
35312;SDS011;21425;50.454;30.466;2023-02-05T14:47:56;27.17;;;15.57;;
35312;SDS011;21425;50.454;30.466;2023-02-05T14:50:23;28.35;;;13.23;;
35312;SDS011;21425;50.454;30.466;2023-02-05T14:52:53;20.65;;;9.70;;
35312;SDS011;21425;50.454;30.466;2023-02-05T14:55:25;28.52;;;13.60;;
35312;SDS011;21425;50.454;30.466;2023-02-05T14:58:02;29.83;;;13.05;;
35312;SDS011;21425;50.454;30.466;2023-02-05T15:05:39;24.48;;;12.25;;
35312;SDS011;21425;50.454;30.466;2023-02-05T15:10:48;33.38;;;15.30;;
35312;SDS011;21425;50.454;30.466;2023-02-05T15:13:21;37.17;;;16.27;;
35312;SDS011;21425;50.454;30.466;2023-02-05T15:18:48;28.90;;;14.90;;
35312;SDS011;21425;50.454;30.466;2023-02-05T15:21:26;28.25;;;14.32;;
35312;SDS011;21425;50.454;30.466;2023-02-05T15:29:34;25.40;;;10.88;;
35312;SDS011;21425;50.454;30.466;2023-02-05T15:32:15;24.15;;;12.70;;
35312;SDS011;21425;50.454;30.466;2023-02-05T15:34:56;28.58;;;16.33;;
35312;SDS011;21425;50.454;30.466;2023-02-05T15:37:33;26.13;;;12.10;;
35312;SDS011;21425;50.454;30.466;2023-02-05T15:40:49;25.40;;;12.57;;
35312;SDS011;21425;50.454;30.466;2023-02-05T15:42:59;27.80;;;14.10;;
35312;SDS011;21425;50.454;30.466;2023-02-05T15:45:45;25.08;;;12.93;;
35312;SDS011;21425;50.454;30.466;2023-02-05T15:48:15;29.63;;;16.25;;
35312;SDS011;21425;50.454;30.466;2023-02-05T15:50:51;25.80;;;11.90;;
35312;SDS011;21425;50.454;30.466;2023-02-05T15:53:26;29.48;;;14.93;;
35312;SDS011;21425;50.454;30.466;2023-02-05T15:55:54;32.25;;;15.25;;
35312;SDS011;21425;50.454;30.466;2023-02-05T15:58:21;28.88;;;15.57;;
35312;SDS011;21425;50.454;30.466;2023-02-05T16:00:49;26.05;;;14.45;;
35312;SDS011;21425;50.454;30.466;2023-02-05T16:03:50;25.02;;;11.77;;
35312;SDS011;21425;50.454;30.466;2023-02-05T16:06:16;23.33;;;13.02;;
35312;SDS011;21425;50.454;30.466;2023-02-05T16:11:24;25.42;;;12.50;;
35312;SDS011;21425;50.454;30.466;2023-02-05T16:14:13;23.33;;;13.65;;
35312;SDS011;21425;50.454;30.466;2023-02-05T16:19:31;29.80;;;15.80;;
35312;SDS011;21425;50.454;30.466;2023-02-05T16:22:09;29.80;;;17.27;;
35312;SDS011;21425;50.454;30.466;2023-02-05T16:24:39;27.60;;;14.57;;
35312;SDS011;21425;50.454;30.466;2023-02-05T16:27:14;26.08;;;13.00;;
35312;SDS011;21425;50.454;30.466;2023-02-05T16:29:45;27.98;;;15.40;;
35312;SDS011;21425;50.454;30.466;2023-02-05T16:35:00;25.05;;;12.60;;
35312;SDS011;21425;50.454;30.466;2023-02-05T16:37:28;25.88;;;13.23;;
35312;SDS011;21425;50.454;30.466;2023-02-05T16:39:55;25.40;;;11.15;;
35312;SDS011;21425;50.454;30.466;2023-02-05T16:42:37;25.35;;;9.77;;
35312;SDS011;21425;50.454;30.466;2023-02-05T16:47:33;23.27;;;13.32;;
35312;SDS011;21425;50.454;30.466;2023-02-05T16:49:59;22.67;;;12.63;;
35312;SDS011;21425;50.454;30.466;2023-02-05T16:52:30;22.33;;;10.50;;
35312;SDS011;21425;50.454;30.466;2023-02-05T16:55:04;19.15;;;9.32;;
35312;SDS011;21425;50.454;30.466;2023-02-05T16:57:32;16.92;;;7.70;;
35312;SDS011;21425;50.454;30.466;2023-02-05T17:00:02;17.95;;;9.75;;
35312;SDS011;21425;50.454;30.466;2023-02-05T17:02:32;15.10;;;7.50;;
35312;SDS011;21425;50.454;30.466;2023-02-05T17:05:01;18.95;;;8.77;;
35312;SDS011;21425;50.454;30.466;2023-02-05T17:07:29;18.08;;;8.18;;
35312;SDS011;21425;50.454;30.466;2023-02-05T17:10:18;15.38;;;8.27;;
35312;SDS011;21425;50.454;30.466;2023-02-05T17:12:46;18.08;;;8.15;;
35312;SDS011;21425;50.454;30.466;2023-02-05T17:15:27;13.98;;;7.53;;
35312;SDS011;21425;50.454;30.466;2023-02-05T17:18:15;10.02;;;4.47;;
35312;SDS011;21425;50.454;30.466;2023-02-05T17:20:46;16.55;;;6.85;;
35312;SDS011;21425;50.454;30.466;2023-02-05T17:23:13;13.63;;;5.88;;
35312;SDS011;21425;50.454;30.466;2023-02-05T17:25:50;12.52;;;6.22;;
35312;SDS011;21425;50.454;30.466;2023-02-05T17:28:26;14.73;;;6.20;;
35312;SDS011;21425;50.454;30.466;2023-02-05T17:30:54;12.90;;;4.80;;